Time;durP1;ratioP1;P1;durP2;ratioP2;P2;SDS_P1;SDS_P2;PMS_P1;PMS_P2;Temp;Humidity;BMP_temperature;BMP_pressure;BME280_temperature;BME280_humidity;BME280_pressure;Samples;Min_cycle;Max_cycle;Signal;HPM_P1;HPM_P2
2022/01/30 09:15:43;;;;;;;2.00;1.10;;;;;;;6.74;68.30;99853.28;5138201;27;20563;-84
2022/01/30 09:18:11;;;;;;;1.53;1.40;;;;;;;7.28;67.12;99851.56;5080382;28;39988;-83
2022/01/30 09:20:42;;;;;;;3.93;1.33;;;;;;;7.84;64.86;99865.44;5084140;28;40893;-82
2022/01/30 09:23:11;;;;;;;2.10;1.10;;;;;;;8.29;63.19;99892.78;5083440;28;41538;-83
2022/01/30 09:25:39;;;;;;;1.90;0.97;;;;;;;8.53;62.05;99883.13;5102189;28;42262;-84
2022/01/30 09:28:07;;;;;;;1.37;1.27;;;;;;;8.64;60.35;99893.31;5103109;28;42434;-80
2022/01/30 09:30:35;;;;;;;1.90;1.10;;;;;;;8.61;58.91;99896.94;5068410;28;40281;-81
2022/01/30 09:33:03;;;;;;;5.57;1.20;;;;;;;8.70;59.33;99894.84;5098281;28;42720;-82
2022/01/30 09:35:31;;;;;;;4.07;1.10;;;;;;;8.81;58.51;99888.22;5085139;28;42044;-80
2022/01/30 09:37:59;;;;;;;1.00;0.90;;;;;;;8.97;57.38;99910.50;5068363;28;38776;-80
2022/01/30 09:40:27;;;;;;;2.40;1.23;;;;;;;8.93;56.96;99911.53;5100148;28;42429;-81
2022/01/30 09:42:56;;;;;;;3.13;1.07;;;;;;;8.95;57.37;99896.47;5099311;28;41747;-83
2022/01/30 09:45:25;;;;;;;1.97;1.53;;;;;;;9.00;57.51;99899.81;5102299;28;42270;-83
2022/01/30 09:47:53;;;;;;;3.30;1.17;;;;;;;9.13;57.50;99904.63;5084145;28;38804;-84
2022/01/30 09:50:23;;;;;;;2.70;1.27;;;;;;;9.11;57.04;99928.47;5102995;28;41391;-82
2022/01/30 09:52:50;;;;;;;8.53;1.37;;;;;;;9.14;56.67;99924.84;5097305;28;42761;-83
2022/01/30 09:55:18;;;;;;;0.90;0.90;;;;;;;9.23;56.36;99935.03;5102592;28;42006;-83
2022/01/30 09:57:47;;;;;;;4.37;1.43;;;;;;;8.88;54.78;99921.44;5078955;28;39062;-83
2022/01/30 10:00:16;;;;;;;3.13;1.30;;;;;;;9.07;54.78;99933.91;5102598;28;40775;-82
2022/01/30 10:02:45;;;;;;;1.63;1.47;;;;;;;9.19;55.59;99936.94;5100216;28;43335;-82
2022/01/30 10:05:14;;;;;;;1.13;0.97;;;;;;;9.20;54.67;99951.00;5102051;28;42610;-82
2022/01/30 10:07:45;;;;;;;3.30;1.00;;;;;;;9.22;54.32;99935.94;5086419;28;38686;-83
2022/01/30 10:10:16;;;;;;;1.80;1.00;;;;;;;8.90;54.09;99940.69;5083155;28;41747;-84
2022/01/30 10:13:01;;;;;;;2.43;0.93;;;;;;;8.96;53.95;99932.56;5085970;28;43137;-83
2022/01/30 10:15:29;;;;;;;1.30;1.03;;;;;;;9.09;53.50;99961.13;5097873;28;42283;-82
2022/01/30 10:17:57;;;;;;;3.97;1.10;;;;;;;9.18;54.72;99956.34;5085868;28;39245;-83
2022/01/30 10:20:27;;;;;;;4.20;1.70;;;;;;;9.17;54.18;99970.47;5092575;28;42694;-84
2022/01/30 10:22:57;;;;;;;8.33;1.37;;;;;;;9.22;55.18;99965.88;5099261;28;41689;-83
2022/01/30 10:25:27;;;;;;;3.10;1.10;;;;;;;9.02;54.08;99956.06;5097988;28;41192;-83
2022/01/30 10:28:07;;;;;;;1.73;1.23;;;;;;;9.09;53.84;99998.13;5072522;28;38808;-83
2022/01/30 10:30:43;;;;;;;2.77;1.23;;;;;;;9.11;53.74;99986.59;5071900;28;40603;-81
2022/01/30 10:33:12;;;;;;;3.87;1.10;;;;;;;9.06;53.61;99988.53;5075122;28;41949;-83
2022/01/30 10:35:47;;;;;;;2.33;1.40;;;;;;;9.04;53.10;99992.16;5088788;28;41429;-83
2022/01/30 10:38:27;;;;;;;3.03;1.13;;;;;;;8.86;53.39;99991.94;5089008;28;39235;-82
2022/01/30 10:40:58;;;;;;;1.07;0.97;;;;;;;8.92;53.95;99967.91;5092005;28;41400;-83
2022/01/30 10:43:52;;;;;;;1.00;1.00;;;;;;;9.28;54.15;99993.84;5108045;28;45796;-82
2022/01/30 10:46:22;;;;;;;3.50;1.40;;;;;;;9.48;52.85;99978.06;5104395;28;41804;-82
2022/01/30 10:48:51;;;;;;;5.77;1.10;;;;;;;9.49;52.83;100006.25;5089878;28;40599;-83
2022/01/30 10:51:19;;;;;;;3.87;1.50;;;;;;;9.27;52.75;99992.16;5072489;28;40688;-84
2022/01/30 10:53:50;;;;;;;4.40;1.73;;;;;;;9.26;53.35;100014.22;5088744;28;43326;-84
2022/01/30 10:56:24;;;;;;;3.63;1.40;;;;;;;9.16;53.34;100024.25;5086935;28;42623;-86
2022/01/30 10:59:06;;;;;;;4.80;1.33;;;;;;;9.12;54.06;100012.09;5069688;28;40295;-82
2022/01/30 11:01:34;;;;;;;3.30;1.17;;;;;;;8.93;54.69;99992.56;5087713;28;42084;-82
2022/01/30 11:04:01;;;;;;;3.50;1.07;;;;;;;8.99;55.30;100009.06;5071342;28;44230;-83
2022/01/30 11:06:30;;;;;;;3.97;1.20;;;;;;;8.85;55.16;100011.34;5069502;28;40991;-84
2022/01/30 11:09:08;;;;;;;3.47;1.00;;;;;;;8.79;54.99;100019.47;5087325;28;40232;-83
2022/01/30 11:11:40;;;;;;;2.13;1.13;;;;;;;8.71;55.20;99999.56;5089090;28;40799;-82
2022/01/30 11:14:19;;;;;;;3.53;1.27;;;;;;;8.93;54.76;100022.47;5079261;28;42586;-83
2022/01/30 11:17:02;;;;;;;3.43;1.07;;;;;;;9.04;54.78;100015.94;5081468;28;43188;-83
2022/01/30 11:19:32;;;;;;;3.83;1.03;;;;;;;9.10;55.22;100015.72;5070578;28;39906;-82
2022/01/30 11:22:01;;;;;;;2.60;1.00;;;;;;;9.10;53.96;100023.66;5088196;28;41782;-83
2022/01/30 11:24:34;;;;;;;1.90;1.20;;;;;;;9.09;54.00;100016.63;5086677;28;42676;-83
2022/01/30 11:27:04;;;;;;;5.40;0.80;;;;;;;9.05;54.86;100012.38;5067457;28;42834;-83
2022/01/30 11:29:36;;;;;;;4.00;1.50;;;;;;;9.02;53.99;100016.84;5070080;28;39099;-83
2022/01/30 11:32:06;;;;;;;4.20;1.40;;;;;;;8.82;54.77;99982.41;5070559;28;42078;-82
2022/01/30 11:34:34;;;;;;;2.30;1.10;;;;;;;9.00;54.83;100015.22;5087012;28;43136;-83
2022/01/30 11:37:02;;;;;;;1.63;0.77;;;;;;;8.90;54.82;100012.03;5085857;28;42756;-83
2022/01/30 11:39:32;;;;;;;5.50;1.50;;;;;;;8.74;53.50;100018.81;5069932;28;40142;-82
2022/01/30 11:42:08;;;;;;;1.83;0.80;;;;;;;8.68;53.79;100008.47;5067119;28;41120;-82
2022/01/30 11:44:37;;;;;;;2.03;1.63;;;;;;;8.74;54.02;100013.53;5085579;28;44858;-84
2022/01/30 11:47:19;;;;;;;1.73;1.07;;;;;;;8.87;53.09;100004.25;5086252;28;42801;-83
2022/01/30 11:49:49;;;;;;;3.10;1.37;;;;;;;9.05;51.30;100028.22;5070902;28;39197;-83
2022/01/30 11:52:19;;;;;;;1.63;0.90;;;;;;;9.33;50.38;100039.47;5070212;28;41733;-81
2022/01/30 11:54:49;;;;;;;4.43;0.97;;;;;;;9.49;50.77;100040.63;5087786;28;41985;-85
2022/01/30 11:57:45;;;;;;;5.30;1.40;;;;;;;9.49;49.34;100035.34;5067633;28;41903;-82
2022/01/30 12:00:39;;;;;;;4.53;1.53;;;;;;;9.47;49.99;100037.16;5011067;28;39959;-82
2022/01/30 12:03:36;;;;;;;5.07;1.50;;;;;;;9.45;50.23;100039.00;5052289;28;41990;-82
2022/01/30 12:06:35;;;;;;;2.63;0.93;;;;;;;9.51;49.67;100038.78;5034067;28;41669;-83
2022/01/30 12:09:05;;;;;;;2.60;1.10;;;;;;;9.86;50.73;100023.28;5016825;28;42431;-83
2022/01/30 12:14:53;;;;;;;4.33;1.37;;;;;;;10.00;50.40;100010.34;5146191;27;20556;-82
2022/01/30 12:17:58;;;;;;;1.43;1.10;;;;;;;10.05;49.78;100029.50;5127475;27;40225;-84
2022/01/30 12:20:27;;;;;;;3.43;1.43;;;;;;;10.06;48.55;100044.47;5128105;27;41807;-82
2022/01/30 12:22:55;;;;;;;1.40;1.07;;;;;;;10.60;48.33;100032.50;5126911;27;43433;-82
2022/01/30 12:25:38;;;;;;;4.50;1.27;;;;;;;10.61;47.17;100034.22;5146543;27;42190;-82
2022/01/30 12:28:11;;;;;;;2.20;1.80;;;;;;;12.73;45.05;100051.44;5108625;27;39236;-83
2022/01/30 12:30:43;;;;;;;3.60;1.60;;;;;;;13.54;42.27;100059.44;5110451;27;43965;-83
2022/01/30 12:33:37;;;;;;;3.30;1.30;;;;;;;12.73;43.00;100073.56;5124320;27;43622;-83
2022/01/30 12:36:13;;;;;;;2.00;1.27;;;;;;;12.15;43.84;100065.00;5131475;27;40907;-81
2022/01/30 12:38:40;;;;;;;2.87;1.13;;;;;;;11.62;45.20;100039.25;5132364;27;39956;-83
2022/01/30 12:41:18;;;;;;;3.10;1.47;;;;;;;11.51;45.91;100049.50;5116136;27;40997;-84
2022/01/30 12:43:51;;;;;;;1.40;1.30;;;;;;;11.28;45.84;100049.72;5115105;27;42275;-84
2022/01/30 12:46:20;;;;;;;2.03;1.57;;;;;;;11.09;46.50;100052.38;5110417;27;41360;-83
2022/01/30 12:49:03;;;;;;;2.73;1.37;;;;;;;11.13;47.04;100049.50;5125650;27;39992;-82
2022/01/30 12:51:30;;;;;;;2.77;1.33;;;;;;;11.31;45.79;100055.75;5130572;27;44477;-83
2022/01/30 12:53:59;;;;;;;2.47;0.90;;;;;;;11.13;46.31;100046.84;5129285;27;41633;-83
2022/01/30 12:56:27;;;;;;;3.37;1.43;;;;;;;10.80;46.02;100043.06;5133793;27;42205;-82
2022/01/30 12:58:59;;;;;;;3.17;1.37;;;;;;;10.58;46.38;100050.25;5110687;27;38796;-81
2022/01/30 13:01:28;;;;;;;2.60;1.10;;;;;;;10.84;46.73;100026.13;5147952;27;41045;-82
2022/01/30 13:04:07;;;;;;;2.70;1.17;;;;;;;11.16;46.76;100033.44;5131592;27;41547;-82
2022/01/30 13:06:36;;;;;;;4.40;1.47;;;;;;;11.22;46.73;100024.38;5132293;27;41245;-81
2022/01/30 13:09:05;;;;;;;6.33;1.37;;;;;;;10.99;45.97;100012.19;5134927;27;40086;-80
2022/01/30 13:11:33;;;;;;;6.20;1.10;;;;;;;10.68;46.16;100009.16;5134854;27;41515;-81
2022/01/30 13:14:05;;;;;;;5.03;1.33;;;;;;;10.53;46.47;100025.72;5134289;27;42046;-84
2022/01/30 13:16:48;;;;;;;3.90;1.20;;;;;;;10.26;46.70;100011.94;5134849;27;41228;-82
2022/01/30 13:19:29;;;;;;;5.07;1.37;;;;;;;10.12;47.71;100015.13;5152137;27;40682;-81
2022/01/30 13:21:57;;;;;;;4.10;1.00;;;;;;;10.15;48.21;100019.41;5148973;27;41704;-82
2022/01/30 13:24:25;;;;;;;4.40;1.50;;;;;;;10.12;47.87;100022.19;5146620;27;41782;-82
2022/01/30 13:26:57;;;;;;;3.23;1.50;;;;;;;10.00;47.50;99999.75;5120889;27;42450;-84
2022/01/30 13:29:25;;;;;;;5.57;1.10;;;;;;;10.28;47.45;100037.38;5137526;27;39177;-82
2022/01/30 13:31:56;;;;;;;2.80;1.20;;;;;;;10.44;47.33;100042.91;5120717;27;41893;-82
2022/01/30 13:34:27;;;;;;;2.93;1.20;;;;;;;10.37;46.65;100047.59;5121329;27;42045;-82
2022/01/30 13:37:01;;;;;;;3.97;1.50;;;;;;;10.28;46.65;100037.38;5133504;27;42466;-82
2022/01/30 13:39:37;;;;;;;1.80;1.43;;;;;;;10.37;46.39;100030.84;5135035;27;41161;-80
2022/01/30 13:42:32;;;;;;;4.10;2.00;;;;;;;10.31;45.44;100021.38;5153169;27;42675;-82
2022/01/30 13:46:55;;;;;;;3.63;1.20;;;;;;;10.15;45.63;100020.25;5118461;27;41457;-81
2022/01/30 13:47:58;;;;;;;5.90;1.43;;;;;;;10.01;46.47;99999.66;5129555;27;42547;-81
2022/01/30 13:50:27;;;;;;;3.13;1.53;;;;;;;10.14;47.66;99991.25;5103772;27;39832;-83
2022/01/30 13:53:04;;;;;;;2.60;1.23;;;;;;;10.23;46.69;100002.31;5099659;27;40623;-81
2022/01/30 13:55:33;;;;;;;3.53;1.33;;;;;;;10.12;45.84;99999.25;5124445;27;42689;-81
2022/01/30 13:58:00;;;;;;;5.23;1.00;;;;;;;9.94;46.75;99992.06;5137332;27;41942;-79
2022/01/30 14:00:31;;;;;;;4.10;1.43;;;;;;;9.97;47.24;99989.28;5120542;27;39256;-80
2022/01/30 14:03:02;;;;;;;3.63;1.03;;;;;;;10.07;46.76;100006.50;5137245;27;40716;-83
2022/01/30 14:05:33;;;;;;;5.27;1.10;;;;;;;10.03;46.57;99999.59;5137876;27;41650;-81
2022/01/30 14:08:09;;;;;;;3.43;1.40;;;;;;;9.94;45.94;100000.00;5137532;27;42397;-81
2022/01/30 14:10:37;;;;;;;2.03;1.47;;;;;;;10.08;47.03;100003.78;5155336;27;40047;-85
2022/01/30 14:13:08;;;;;;;4.77;1.00;;;;;;;9.98;46.00;99993.66;5148052;27;42024;-83
2022/01/30 14:15:37;;;;;;;3.27;1.30;;;;;;;10.09;46.45;100012.59;5132599;27;43515;-83
2022/01/30 14:18:27;;;;;;;4.77;1.27;;;;;;;10.05;46.31;100008.34;5135454;27;43074;-81
2022/01/30 14:20:57;;;;;;;4.10;1.50;;;;;;;9.94;45.66;100000.00;5120730;27;38786;-82
2022/01/30 14:23:25;;;;;;;8.97;1.67;;;;;;;10.03;46.44;99999.59;5112370;27;40745;-83
2022/01/30 14:25:53;;;;;;;3.80;1.33;;;;;;;9.94;46.61;99974.41;5126982;27;41873;-84
2022/01/30 14:28:27;;;;;;;4.37;1.57;;;;;;;10.26;46.26;100007.47;5116574;27;42539;-83
2022/01/30 14:30:57;;;;;;;3.20;1.47;;;;;;;10.25;45.23;100000.47;5128495;27;39413;-83
2022/01/30 14:33:31;;;;;;;4.10;1.60;;;;;;;10.30;45.44;99998.47;5130669;27;40988;-82
2022/01/30 14:36:00;;;;;;;2.60;1.30;;;;;;;10.08;45.57;99976.47;5118004;27;42592;-83
2022/01/30 14:38:28;;;;;;;3.13;1.30;;;;;;;10.17;46.04;99997.22;5121805;27;42717;-81
2022/01/30 14:40:57;;;;;;;4.53;1.00;;;;;;;9.91;46.17;99958.63;5133101;27;39175;-83
2022/01/30 14:43:25;;;;;;;5.37;1.50;;;;;;;9.71;46.13;99954.19;5118547;27;40833;-83
2022/01/30 14:45:53;;;;;;;4.97;2.03;;;;;;;9.82;46.88;99976.69;5119492;27;41651;-83
2022/01/30 14:48:20;;;;;;;4.30;1.07;;;;;;;9.76;47.27;99980.47;5118305;27;42267;-82
2022/01/30 14:50:49;;;;;;;1.97;1.10;;;;;;;9.71;46.75;99993.88;5134299;27;39415;-82
2022/01/30 14:53:16;;;;;;;4.63;1.43;;;;;;;9.60;47.27;99996.09;5135617;27;40976;-82
2022/01/30 14:55:44;;;;;;;4.60;1.20;;;;;;;9.61;47.89;99995.19;5118216;27;43274;-83
2022/01/30 14:58:15;;;;;;;2.33;1.07;;;;;;;9.64;48.54;99986.25;5114937;27;42309;-82
2022/01/30 15:00:43;;;;;;;11.00;1.30;;;;;;;9.48;48.59;99972.78;5132584;27;39131;-82
2022/01/30 15:03:10;;;;;;;6.73;1.67;;;;;;;9.46;49.00;99977.28;5110155;27;40641;-82
2022/01/30 15:05:38;;;;;;;3.50;1.50;;;;;;;9.31;49.34;99969.94;5135742;27;42892;-84
2022/01/30 15:08:07;;;;;;;3.87;1.93;;;;;;;9.18;49.74;99958.13;5117344;27;42066;-84
2022/01/30 15:10:35;;;;;;;3.10;1.47;;;;;;;8.89;50.24;99923.16;5119196;27;39205;-83
2022/01/30 15:13:09;;;;;;;5.63;1.20;;;;;;;9.06;50.30;99966.53;5134831;27;42614;-84
2022/01/30 15:15:38;;;;;;;3.17;1.40;;;;;;;8.73;51.00;99908.81;5118098;27;41586;-83
2022/01/30 15:18:13;;;;;;;6.77;1.60;;;;;;;8.68;49.54;99912.53;5128712;27;41067;-82
2022/01/30 15:20:43;;;;;;;7.00;1.40;;;;;;;8.73;49.99;99937.84;5134607;27;39019;-80
2022/01/30 15:23:12;;;;;;;2.07;1.03;;;;;;;8.78;50.07;99962.28;5119614;27;40600;-81
2022/01/30 15:25:40;;;;;;;3.77;1.67;;;;;;;8.61;50.20;99964.72;5118284;27;41992;-82
2022/01/30 15:28:08;;;;;;;3.83;1.70;;;;;;;8.49;50.36;99951.97;5134656;27;40843;-83
2022/01/30 15:30:36;;;;;;;6.97;1.63;;;;;;;8.49;50.86;99949.31;5116362;27;40201;-81
2022/01/30 15:33:03;;;;;;;6.13;2.27;;;;;;;8.43;51.11;99938.97;5142265;27;40359;-80
2022/01/30 15:35:31;;;;;;;3.77;1.23;;;;;;;8.39;51.52;99942.66;5119286;27;42035;-80
2022/01/30 15:37:59;;;;;;;2.20;1.20;;;;;;;8.33;52.28;99932.31;5117387;27;40788;-82
2022/01/30 15:40:28;;;;;;;6.50;2.03;;;;;;;8.34;52.38;99944.59;5111605;27;40323;-80
2022/01/30 15:42:55;;;;;;;6.00;1.40;;;;;;;8.24;52.03;99942.25;5152896;27;41667;-83
2022/01/30 15:50:53;;;;;;;4.40;1.10;;;;;;;8.13;52.95;99935.66;5118878;27;40196;-82
2022/01/30 15:53:20;;;;;;;7.83;1.50;;;;;;;8.01;53.28;99914.97;5117675;27;41538;-82
2022/01/30 15:55:50;;;;;;;6.50;1.90;;;;;;;7.95;53.27;99916.03;5115729;27;43351;-83
2022/01/30 15:58:17;;;;;;;2.20;1.27;;;;;;;7.97;53.55;99919.47;5133093;27;42153;-83
2022/01/30 16:00:45;;;;;;;3.10;1.70;;;;;;;7.89;54.04;99914.50;5118292;27;39973;-83
2022/01/30 16:03:12;;;;;;;4.27;1.00;;;;;;;7.59;53.80;99894.44;5117208;27;41036;-82
2022/01/30 16:05:40;;;;;;;2.57;1.47;;;;;;;7.53;53.39;99911.31;5117764;27;41498;-82
2022/01/30 16:08:07;;;;;;;4.00;1.30;;;;;;;7.46;53.79;99922.97;5117502;27;42158;-82
2022/01/30 16:10:35;;;;;;;7.27;1.57;;;;;;;7.22;53.96;99905.31;5125282;27;39719;-83
2022/01/30 16:15:45;;;;;;;4.73;1.13;;;;;;;6.95;54.22;99885.97;5120471;27;42386;-82
2022/01/30 16:18:15;;;;;;;6.50;1.83;;;;;;;7.09;54.44;99914.53;5117223;27;40966;-82
2022/01/30 16:20:44;;;;;;;5.07;1.30;;;;;;;6.65;54.37;99852.72;5117727;27;39141;-82
2022/01/30 16:23:14;;;;;;;3.20;1.47;;;;;;;6.79;54.39;99877.72;5116600;27;40890;-82
2022/01/30 16:25:44;;;;;;;5.27;1.30;;;;;;;6.84;54.81;99881.06;5152819;27;43470;-83
2022/01/30 16:28:13;;;;;;;5.37;1.93;;;;;;;6.67;55.03;99877.22;5129301;27;42139;-82
2022/01/30 16:30:41;;;;;;;7.70;1.17;;;;;;;6.83;54.94;99915.31;5134768;27;38974;-82
2022/01/30 16:33:08;;;;;;;4.63;1.20;;;;;;;6.91;54.62;99933.53;5113842;27;42201;-82
2022/01/30 16:35:36;;;;;;;4.67;1.97;;;;;;;6.64;54.68;99886.06;5113625;27;42805;-83
2022/01/30 16:38:05;;;;;;;2.23;0.87;;;;;;;6.83;55.09;99905.66;5115082;27;42682;-82
2022/01/30 16:40:33;;;;;;;5.20;1.30;;;;;;;6.90;54.58;99932.69;5116895;27;40115;-82
2022/01/30 16:43:10;;;;;;;2.30;1.37;;;;;;;6.89;54.33;99935.34;5133761;27;40691;-82
2022/01/30 16:45:45;;;;;;;5.47;1.70;;;;;;;6.92;54.31;99933.50;5117753;27;41763;-82
2022/01/30 16:48:16;;;;;;;4.70;1.27;;;;;;;6.85;53.60;99935.44;5100997;27;42050;-82
2022/01/30 16:50:48;;;;;;;5.43;1.17;;;;;;;6.76;53.91;99912.03;5114030;27;38964;-83
2022/01/30 16:53:17;;;;;;;1.87;1.07;;;;;;;6.85;54.04;99922.28;5142241;27;40962;-82
2022/01/30 16:55:45;;;;;;;5.27;1.37;;;;;;;6.95;54.06;99935.16;5124543;27;41791;-83
2022/01/30 16:58:14;;;;;;;3.53;1.27;;;;;;;6.97;54.25;99933.34;5138851;27;42035;-83
2022/01/30 17:00:43;;;;;;;4.13;1.87;;;;;;;6.95;53.88;99929.88;5122793;27;38567;-83
2022/01/30 17:03:10;;;;;;;3.63;1.20;;;;;;;6.92;54.02;99932.63;5143203;27;40740;-83
2022/01/30 17:05:38;;;;;;;3.47;1.10;;;;;;;6.96;54.18;99936.88;5128952;27;42002;-82
2022/01/30 17:08:06;;;;;;;4.00;1.37;;;;;;;6.99;54.07;99942.91;5126913;27;41714;-82
2022/01/30 17:10:38;;;;;;;3.27;1.57;;;;;;;6.97;54.03;99934.19;5143239;27;39817;-81
2022/01/30 17:13:05;;;;;;;2.50;1.00;;;;;;;6.96;54.17;99934.25;5126396;27;42431;-83
2022/01/30 17:15:39;;;;;;;4.77;1.97;;;;;;;6.88;54.27;99909.94;5123920;27;41610;-82
2022/01/30 17:18:10;;;;;;;6.70;1.40;;;;;;;6.57;54.37;99855.56;5139017;27;42862;-82
2022/01/30 17:20:40;;;;;;;3.40;1.43;;;;;;;6.94;54.70;99912.34;5136761;27;39835;-83
2022/01/30 17:23:08;;;;;;;3.90;0.90;;;;;;;6.79;54.81;99896.16;5120376;27;41923;-82
2022/01/30 17:25:36;;;;;;;3.40;1.00;;;;;;;6.73;55.00;99896.31;5121190;27;41798;-82
2022/01/30 17:28:09;;;;;;;5.43;1.43;;;;;;;6.35;55.35;99838.69;5120154;27;41391;-82
2022/01/30 17:30:37;;;;;;;8.50;1.27;;;;;;;6.72;55.11;99913.00;5134736;27;40215;-82
2022/01/30 17:33:05;;;;;;;7.73;2.10;;;;;;;6.69;55.29;99913.09;5136761;27;42114;-82
2022/01/30 17:35:35;;;;;;;2.07;1.63;;;;;;;6.59;55.40;99905.53;5109455;27;41813;-82
2022/01/30 17:38:04;;;;;;;4.10;1.60;;;;;;;6.70;55.81;99925.34;5119280;27;41318;-82
2022/01/30 17:40:39;;;;;;;3.17;1.80;;;;;;;6.70;55.64;99921.84;5124141;27;39325;-82
2022/01/30 17:43:08;;;;;;;6.00;1.67;;;;;;;6.64;55.78;99909.75;5123414;27;42425;-83
2022/01/30 17:45:36;;;;;;;3.37;1.77;;;;;;;6.62;55.56;99906.31;5120384;27;43294;-83
2022/01/30 17:48:04;;;;;;;6.70;1.83;;;;;;;6.57;55.57;99897.66;5129123;27;42555;-84
2022/01/30 17:50:36;;;;;;;5.03;1.50;;;;;;;6.65;55.74;99905.38;5126447;27;38848;-84
2022/01/30 17:53:04;;;;;;;6.77;2.13;;;;;;;6.52;55.71;99883.81;5141615;27;42610;-83
2022/01/30 17:55:32;;;;;;;10.40;2.07;;;;;;;6.69;55.62;99899.94;5120432;27;43131;-82
2022/01/30 17:57:59;;;;;;;3.67;1.40;;;;;;;6.69;55.75;99899.94;5126732;27;42169;-82
2022/01/30 18:00:29;;;;;;;1.20;1.10;;;;;;;6.69;55.78;99902.56;5129689;27;39506;-81
2022/01/30 18:02:57;;;;;;;2.50;1.60;;;;;;;6.63;55.79;99902.78;5153961;27;41993;-81
2022/01/30 18:05:26;;;;;;;3.33;1.17;;;;;;;6.44;55.85;99876.13;5141112;27;42918;-82
2022/01/30 18:07:55;;;;;;;2.30;1.20;;;;;;;6.56;55.95;99895.94;5133286;27;41344;-83
2022/01/30 18:10:22;;;;;;;5.57;1.50;;;;;;;6.64;56.13;99920.28;5126620;27;40345;-81
2022/01/30 18:12:51;;;;;;;6.87;1.50;;;;;;;6.58;56.06;99903.81;5095957;27;40933;-83
2022/01/30 18:15:18;;;;;;;4.00;1.43;;;;;;;6.41;55.66;99875.38;5112677;27;41766;-82
2022/01/30 18:17:48;;;;;;;9.07;1.37;;;;;;;6.39;56.06;99882.44;5114539;27;42025;-82
2022/01/30 18:20:17;;;;;;;4.63;1.13;;;;;;;6.01;55.42;99855.47;5117232;27;40949;-82
2022/01/30 18:22:44;;;;;;;4.17;1.20;;;;;;;6.10;55.25;99897.28;5115179;27;40929;-82
2022/01/30 18:25:14;;;;;;;3.80;1.30;;;;;;;5.65;55.48;99825.75;5115216;27;43420;-81
2022/01/30 18:27:43;;;;;;;2.67;1.30;;;;;;;5.92;55.15;99876.75;5119780;27;41242;-82
2022/01/30 18:30:11;;;;;;;4.07;1.60;;;;;;;6.10;55.38;99892.00;5119526;27;40270;-81
2022/01/30 18:32:38;;;;;;;3.53;1.30;;;;;;;6.11;55.66;99883.22;5141761;27;41911;-82
2022/01/30 18:35:07;;;;;;;4.63;1.60;;;;;;;6.04;55.69;99876.41;5114413;27;42642;-83
2022/01/30 18:37:39;;;;;;;2.67;1.30;;;;;;;6.11;55.78;99883.22;5117258;27;41300;-81
